Terminal Aerodrome Forecast
Issued by NWS

Home | Current Version | Previous Version | Text Only | Print | Product List | Glossary On
Versions: 1 2 3 4 5 6 7 8 9 10 11 12 13 14 15 16 17 18 19 20 21 22 23
000
FTUS41 KPBZ 211800 AAA
TAFAGC
TAF AMD
KAGC 211855Z 2119/2218 32010G15KT P6SM -RA BKN025
      TEMPO 2119/2123 BKN015
     FM212300 31008KT 6SM -RA BKN015
     FM220600 32005KT 5SM BR VCSH BKN008
     FM221200 33008KT P6SM BKN015 OVC025
     FM221500 33009KT P6SM BKN025=

USA.gov is the U.S. government's official web portal to all federal, state and local government web resources and services.